Accueil
METAR-TAF:

METAR-TAF

Aéroports :

Aéroport international de Coni

Coni, Italie

latitude: 44-32-47N, longitude: 007-37-20E, altitude: 386 m

Observation

Le bulletin a été fait il y a 17 minutes, à 21:50 UTC
Vent 2 kt de nord/nord-est
Température 21°C
Humidité 88%
Pression 1017 hPa
Visibilité 10 km ou plus

METAR: LIMZ 162150Z AUTO 02002KT 9999 ///////// 21/19 Q1017

Heure: 00:07 (22:07 UTC)

Prévision

Le bulletin a été fait il y a 5 heures et 7 minutes, à 17:00 UTC
Prévision valable du 16 à 18 UTC au 17 à 18 UTC
Vent 5 kt de direction variable
Visibilité 10 km ou plus
Nuages épars à une hauteur de 2000 ft
Temporairement
du 16 à 18 UTC au 16 à 24 UTC
Visibilité: 4000 m
orage, pluie
Temporairement
du 17 à 12 UTC au 17 à 18 UTC
Visibilité: 4000 m
orage, pluie

TAF: LIMZ 161700Z 1618/1718 VRB05KT 9999 SCT020 TEMPO 1618/1624 4000 TSRA TEMPO 1712/1718 4000 TSRA

Observations et prévisions météorologiques de plus de 4000 aéroports (messages METAR et TAF).

Les stations disponibles sont représentées par des disques jaunes et rouges sur la carte.

Passer la souris dessus pour voir le nom de la station.

Cliquer dessus pour voir les observations et prévisions météorologiques.

Pour changer de carte: cliquez sur les boutons verts avec une croix noire pour zoomer, sur le bouton vert avec un tiret pour effectuer un zoom arrière, ou sur les flèches vertes pour les cartes adjacentes.


METAR-TAF: